Time;durP1;ratioP1;P1;durP2;ratioP2;P2;SDS_P1;SDS_P2;PMS_P1;PMS_P2;Temp;Humidity;BMP_temperature;BMP_pressure;BME280_temperature;BME280_humidity;BME280_pressure;Samples;Min_cycle;Max_cycle;Signal;HPM_P1;HPM_P2
2022/08/01 00:02:17;;;;;;;2.75;2.55;;;;;;;23.13;54.26;94573.06;5104742;28;20185;-91
2022/08/01 00:04:45;;;;;;;3.47;2.40;;;;;;;22.43;54.17;94479.50;5105763;28;20201;-88
2022/08/01 00:07:12;;;;;;;2.83;2.50;;;;;;;23.10;54.01;94581.34;5105260;28;20606;-88
2022/08/01 00:09:39;;;;;;;4.85;2.90;;;;;;;21.45;54.22;94325.78;5105649;28;20190;-89
2022/08/01 00:12:07;;;;;;;2.72;2.30;;;;;;;21.62;53.88;94342.44;5108739;28;20204;-92
2022/08/01 00:14:34;;;;;;;3.70;2.50;;;;;;;23.09;54.30;94573.72;5106733;28;20190;-90
2022/08/01 00:17:01;;;;;;;3.58;2.17;;;;;;;22.74;53.98;94525.50;5107509;28;20190;-89
2022/08/01 00:19:28;;;;;;;5.55;2.50;;;;;;;22.90;54.10;94545.03;5111095;28;20201;-89
2022/08/01 00:21:56;;;;;;;2.83;2.50;;;;;;;23.03;54.25;94572.78;5109769;28;20200;-93
2022/08/01 00:24:24;;;;;;;3.58;2.78;;;;;;;22.10;54.20;94432.13;5112403;28;20220;-89
2022/08/01 00:26:51;;;;;;;4.35;2.63;;;;;;;22.89;54.28;94559.06;5112726;28;20221;-93
2022/08/01 00:29:18;;;;;;;2.67;2.47;;;;;;;22.97;54.56;94577.06;5100458;28;20196;-91
2022/08/01 00:31:45;;;;;;;4.30;2.45;;;;;;;22.04;54.23;94434.56;5105475;28;20186;-93
2022/08/01 00:34:15;;;;;;;3.15;2.85;;;;;;;21.84;54.37;94405.31;5095981;28;20189;-94
2022/08/01 00:36:42;;;;;;;2.67;2.47;;;;;;;22.53;54.57;94512.88;5095926;28;20205;-89
2022/08/01 00:39:11;;;;;;;2.53;2.33;;;;;;;22.86;54.53;94576.94;5099018;28;20257;-87
2022/08/01 00:41:38;;;;;;;2.60;2.40;;;;;;;21.92;54.53;94432.88;5108056;28;20229;-90
2022/08/01 00:44:06;;;;;;;2.70;2.50;;;;;;;22.38;54.45;94535.91;5105724;28;20659;-89
2022/08/01 00:46:33;;;;;;;5.03;2.72;;;;;;;22.53;54.66;94552.78;5096659;28;20217;-88
2022/08/01 00:49:00;;;;;;;4.38;2.88;;;;;;;22.35;54.99;94518.88;5097146;28;20194;-89
2022/08/01 00:51:28;;;;;;;4.57;2.92;;;;;;;22.70;55.33;94573.88;5097733;28;20664;-91
2022/08/01 00:53:56;;;;;;;2.80;2.60;;;;;;;22.46;55.68;94544.25;5113404;28;20201;-91
2022/08/01 00:56:26;;;;;;;5.25;3.10;;;;;;;22.62;56.11;94568.94;5116707;28;20197;-91
2022/08/01 00:58:56;;;;;;;4.00;2.97;;;;;;;22.59;56.67;94576.41;5115476;28;20284;-92
2022/08/01 01:01:23;;;;;;;3.50;3.20;;;;;;;22.54;56.93;94577.84;5114420;28;20692;-91
2022/08/01 01:03:51;;;;;;;4.18;3.00;;;;;;;22.16;57.13;94517.25;5089817;28;20178;-94
2022/08/01 01:06:26;;;;;;;7.25;3.22;;;;;;;21.47;57.08;94399.22;5098863;28;20267;-91
2022/08/01 01:09:04;;;;;;;3.45;2.78;;;;;;;22.43;57.47;94557.69;5110320;28;20216;-89
2022/08/01 01:11:45;;;;;;;3.05;2.85;;;;;;;22.41;57.31;94545.88;5105565;28;20185;-93
2022/08/01 01:14:24;;;;;;;3.63;3.08;;;;;;;21.71;57.29;94450.47;5098863;28;20656;-92
2022/08/01 01:16:54;;;;;;;3.13;2.88;;;;;;;22.31;56.72;94551.59;5099335;28;20189;-93
2022/08/01 01:19:25;;;;;;;2.70;2.50;;;;;;;21.88;56.74;94487.19;5113121;28;20197;-86
2022/08/01 01:22:15;;;;;;;3.17;2.97;;;;;;;22.25;56.75;94552.44;5101817;28;20197;-89
2022/08/01 01:24:52;;;;;;;4.47;2.40;;;;;;;22.19;56.59;94548.91;5095337;28;20197;-93
2022/08/01 01:27:26;;;;;;;3.80;2.45;;;;;;;22.17;56.55;94548.28;5095386;28;20209;-91
2022/08/01 01:29:56;;;;;;;3.42;2.42;;;;;;;21.78;56.35;94482.47;5094930;28;20196;-95
2022/08/01 01:32:33;;;;;;;7.70;2.40;;;;;;;22.13;56.21;94547.13;5095966;28;20200;-93
2022/08/01 01:35:03;;;;;;;2.50;2.30;;;;;;;22.12;55.70;94540.31;5096641;28;20192;-92
2022/08/01 01:37:34;;;;;;;2.78;2.20;;;;;;;22.10;55.23;94531.88;5096527;28;20675;-92
2022/08/01 01:40:03;;;;;;;2.10;2.00;;;;;;;22.06;55.72;94538.53;5097227;28;20196;-92
2022/08/01 01:42:33;;;;;;;3.83;2.72;;;;;;;22.04;55.22;94524.94;5098554;28;20190;-93
2022/08/01 01:45:04;;;;;;;2.40;2.20;;;;;;;21.32;54.63;94414.34;5103280;28;20245;-87
2022/08/01 01:47:33;;;;;;;5.00;2.28;;;;;;;21.00;54.73;94359.72;5103323;28;20249;-89
2022/08/01 01:50:04;;;;;;;2.67;2.20;;;;;;;20.45;54.36;94271.84;5103894;28;20277;-93
2022/08/01 01:52:32;;;;;;;1.90;1.80;;;;;;;21.99;54.11;94525.56;5100293;28;20189;-94
2022/08/01 01:55:02;;;;;;;4.30;2.20;;;;;;;20.78;53.62;94336.66;5097741;28;20182;-91
2022/08/01 01:57:31;;;;;;;3.67;2.22;;;;;;;21.19;52.95;94392.56;5080380;28;20193;-90
2022/08/01 01:59:59;;;;;;;2.78;2.25;;;;;;;21.43;53.06;94432.69;5107888;28;20212;-91
2022/08/01 02:03:06;;;;;;;1.85;1.75;;;;;;;21.95;52.50;94513.19;5101316;28;20186;-94
2022/08/01 02:05:36;;;;;;;2.10;2.00;;;;;;;21.49;52.38;94451.84;5096157;28;20189;-92
2022/08/01 02:08:05;;;;;;;2.72;2.30;;;;;;;21.89;51.95;94509.63;5094852;28;20233;-92
2022/08/01 02:10:37;;;;;;;2.38;2.03;;;;;;;21.86;52.02;94517.06;5095888;28;20591;-93
2022/08/01 02:13:06;;;;;;;2.47;2.03;;;;;;;;;;5094382;28;20185;-91
2022/08/01 02:15:38;;;;;;;2.22;1.80;;;;;;;20.87;51.94;94352.00;5094732;28;20232;-93
2022/08/01 02:18:33;;;;;;;2.10;2.00;;;;;;;21.84;51.81;94500.84;5094697;28;20269;-92
2022/08/01 02:21:06;;;;;;;2.20;1.90;;;;;;;21.01;51.73;94376.91;5104187;28;20189;-92
2022/08/01 02:23:37;;;;;;;2.20;1.95;;;;;;;21.09;51.88;94387.06;5096969;28;20261;-90
2022/08/01 02:26:10;;;;;;;2.30;2.10;;;;;;;21.40;51.99;94442.69;5096234;28;20693;-92
2022/08/01 02:28:42;;;;;;;3.47;2.10;;;;;;;20.20;51.75;94252.81;5096650;28;20304;-90
2022/08/01 02:31:14;;;;;;;3.15;1.98;;;;;;;21.74;51.33;94493.50;5096309;28;20280;-92
2022/08/01 02:33:44;;;;;;;3.65;2.10;;;;;;;21.72;51.35;94498.16;5094958;28;20197;-90
2022/08/01 02:36:14;;;;;;;2.45;2.25;;;;;;;21.68;51.23;94496.97;5098363;28;20198;-93
2022/08/01 02:38:46;;;;;;;3.40;2.25;;;;;;;21.69;50.84;94498.56;5095317;28;20236;-92
2022/08/01 02:41:17;;;;;;;2.80;1.95;;;;;;;21.68;50.69;94499.56;5096413;28;20197;-94
2022/08/01 02:43:50;;;;;;;5.00;2.10;;;;;;;21.66;50.72;94504.19;5100736;28;20188;-90
2022/08/01 02:46:22;;;;;;;1.90;1.80;;;;;;;21.62;50.83;94497.78;5097009;28;20276;-92
2022/08/01 02:48:53;;;;;;;2.45;2.00;;;;;;;21.26;50.76;94442.75;5094385;28;20322;-93
2022/08/01 02:51:25;;;;;;;4.55;1.98;;;;;;;21.61;50.91;94493.59;5094506;28;20189;-91
2022/08/01 02:53:56;;;;;;;1.90;1.80;;;;;;;21.59;50.53;94485.19;5094211;28;20606;-91
2022/08/01 02:56:34;;;;;;;2.10;1.95;;;;;;;21.58;50.31;94491.41;5097720;28;20190;-90
2022/08/01 02:59:04;;;;;;;3.22;1.73;;;;;;;21.46;50.40;94481.69;5081301;28;20194;-90
2022/08/01 03:01:35;;;;;;;3.00;2.65;;;;;;;21.57;50.47;94497.63;5096152;28;20194;-90
2022/08/01 03:04:04;;;;;;;7.45;2.45;;;;;;;21.35;50.28;94464.16;5100577;28;20194;-86
2022/08/01 03:06:34;;;;;;;4.63;2.17;;;;;;;21.41;50.30;94475.50;5102041;28;20568;-92
2022/08/01 03:09:03;;;;;;;3.10;1.95;;;;;;;21.09;50.46;94433.84;5094665;28;20247;-96
2022/08/01 03:11:31;;;;;;;2.03;1.90;;;;;;;21.45;50.71;94490.50;5094854;28;20196;-91
2022/08/01 03:14:02;;;;;;;2.38;2.10;;;;;;;19.91;50.60;94261.94;5094096;28;20194;-91
2022/08/01 03:16:33;;;;;;;3.03;1.90;;;;;;;20.70;49.94;94398.47;5095283;28;20243;-88
2022/08/01 03:19:03;;;;;;;2.10;2.00;;;;;;;21.38;50.36;94501.97;5103566;28;20874;-85
2022/08/01 03:21:34;;;;;;;2.33;2.10;;;;;;;21.13;50.42;94466.25;5104003;28;20194;-93
2022/08/01 03:24:04;;;;;;;2.85;2.05;;;;;;;20.22;51.23;94333.91;5099399;28;20189;-93
2022/08/01 03:26:35;;;;;;;3.42;2.10;;;;;;;20.99;51.71;94460.31;5098821;28;20276;-93
2022/08/01 03:29:07;;;;;;;5.30;2.38;;;;;;;20.40;52.21;94359.19;5095033;28;20229;-89
2022/08/01 03:31:45;;;;;;;3.90;2.40;;;;;;;21.35;52.51;94505.78;5106280;28;20185;-87
2022/08/01 03:34:21;;;;;;;2.53;2.33;;;;;;;21.33;52.86;94504.38;5102612;28;20666;-93
2022/08/01 03:37:02;;;;;;;3.10;2.57;;;;;;;20.28;53.33;94341.66;5096422;28;20224;-93
2022/08/01 03:39:32;;;;;;;6.70;2.53;;;;;;;21.16;53.90;94485.84;5095638;28;20182;-94
2022/08/01 03:42:06;;;;;;;2.85;2.38;;;;;;;20.00;54.60;94312.63;5094669;28;20190;-94
2022/08/01 03:44:44;;;;;;;2.92;2.25;;;;;;;20.92;54.71;94449.13;5097720;28;20272;-91
2022/08/01 03:47:50;;;;;;;3.05;2.45;;;;;;;21.25;55.03;94490.59;5100312;28;20304;-90
2022/08/01 03:50:21;;;;;;;3.33;2.53;;;;;;;21.23;55.33;94500.38;5100804;28;20197;-96
2022/08/01 03:55:37;;;;;;;3.17;2.50;;;;;;;21.21;54.84;94499.81;5092166;28;20217;-94
2022/08/01 03:58:07;;;;;;;2.97;2.47;;;;;;;20.33;54.02;94355.81;5102531;28;20277;-92
2022/08/01 04:00:38;;;;;;;4.28;2.33;;;;;;;19.84;52.93;94285.31;5102961;28;20225;-93
2022/08/01 04:03:06;;;;;;;2.80;2.03;;;;;;;21.16;52.32;94485.84;5101588;28;20178;-93
2022/08/01 04:05:33;;;;;;;2.50;2.30;;;;;;;21.21;52.18;94486.81;5106963;28;20174;-93
2022/08/01 04:08:08;;;;;;;3.53;2.30;;;;;;;20.34;51.87;94347.84;5106067;28;20225;-92
2022/08/01 04:10:35;;;;;;;3.42;2.25;;;;;;;21.10;51.94;94477.06;5103306;28;20213;-93
2022/08/01 04:13:12;;;;;;;2.33;2.10;;;;;;;20.46;51.87;94369.56;5106205;28;20233;-93
2022/08/01 04:15:42;;;;;;;4.90;2.37;;;;;;;20.45;51.59;94367.16;5107862;28;20189;-88
2022/08/01 04:18:12;;;;;;;4.05;2.67;;;;;;;21.30;51.53;94502.97;5114784;28;20219;-90
2022/08/01 04:20:42;;;;;;;3.83;3.10;;;;;;;19.09;52.95;94169.97;5118157;28;20181;-86
2022/08/01 04:23:12;;;;;;;8.20;3.78;;;;;;;21.28;54.36;94503.16;5117848;28;20243;-90
2022/08/01 04:25:42;;;;;;;6.78;3.80;;;;;;;21.29;55.56;94515.19;5117664;28;20185;-87
2022/08/01 04:28:16;;;;;;;5.32;3.65;;;;;;;21.30;55.99;94511.56;5117560;28;20252;-88
2022/08/01 04:30:48;;;;;;;5.78;3.35;;;;;;;21.29;56.00;94519.59;5113632;28;20234;-87
2022/08/01 04:35:52;;;;;;;9.33;3.77;;;;;;;20.78;56.09;94426.81;5106136;22;20243;-90
2022/08/01 04:38:24;;;;;;;4.25;3.40;;;;;;;20.06;56.32;94311.78;5086429;28;20178;-94
2022/08/01 04:40:55;;;;;;;6.97;3.27;;;;;;;21.06;56.06;94473.28;5081258;28;20186;-93
2022/08/01 04:43:24;;;;;;;4.72;3.17;;;;;;;21.36;56.06;94516.97;5102124;28;20203;-92
2022/08/01 04:45:53;;;;;;;6.05;3.80;;;;;;;21.21;55.90;94493.81;5083386;28;20268;-89
2022/08/01 04:48:20;;;;;;;4.45;3.58;;;;;;;20.45;56.10;94365.38;5091096;28;20283;-87
2022/08/01 04:50:47;;;;;;;4.47;3.47;;;;;;;21.47;55.45;94516.31;5102653;28;20251;-92
2022/08/01 04:53:16;;;;;;;7.07;4.22;;;;;;;21.18;55.52;94461.22;5111903;28;20201;-87
2022/08/01 04:55:46;;;;;;;10.48;4.63;;;;;;;20.91;55.98;94407.78;5097339;28;20200;-88
2022/08/01 04:58:14;;;;;;;7.43;4.32;;;;;;;21.27;56.24;94461.75;5109267;28;20189;-90
2022/08/01 05:00:42;;;;;;;7.70;4.00;;;;;;;20.44;56.61;94319.63;5112106;28;20189;-89
2022/08/01 05:03:08;;;;;;;6.78;4.88;;;;;;;21.65;56.79;94518.22;5109508;28;20666;-88
2022/08/01 05:05:36;;;;;;;5.38;4.70;;;;;;;20.56;56.73;94350.19;5108367;28;20221;-89
2022/08/01 05:08:03;;;;;;;6.70;4.63;;;;;;;20.47;57.29;94331.41;5106964;28;20708;-88
2022/08/01 05:10:30;;;;;;;6.72;4.82;;;;;;;20.42;57.25;94313.84;5102282;28;20266;-90
2022/08/01 05:13:00;;;;;;;9.02;5.25;;;;;;;21.48;57.71;94458.06;5088613;28;20244;-91
2022/08/01 05:15:27;;;;;;;10.68;5.25;;;;;;;21.95;58.26;94502.78;5098124;28;20203;-87
2022/08/01 05:17:56;;;;;;;12.73;5.95;;;;;;;21.06;57.79;94369.25;5109205;28;20231;-87
2022/08/01 05:20:22;;;;;;;5.75;5.15;;;;;;;21.89;57.29;94491.41;5103578;28;20186;-89
2022/08/01 05:22:49;;;;;;;10.88;5.30;;;;;;;21.09;57.24;94361.06;5096625;28;20200;-88
2022/08/01 05:25:16;;;;;;;12.85;6.60;;;;;;;22.22;57.47;94504.16;5083355;28;20193;-82
2022/08/01 05:27:43;;;;;;;9.73;4.88;;;;;;;22.31;57.30;94511.72;5101539;28;20220;-91
2022/08/01 05:30:12;;;;;;;10.63;5.75;;;;;;;22.45;57.24;94510.56;5100674;28;20188;-87
2022/08/01 05:32:40;;;;;;;11.02;4.72;;;;;;;22.58;56.66;94500.00;5097536;28;20310;-87
2022/08/01 05:35:08;;;;;;;6.20;4.07;;;;;;;22.61;54.32;94504.00;5101138;28;20229;-83
2022/08/01 05:37:36;;;;;;;5.97;4.05;;;;;;;22.82;55.27;94505.38;5096126;28;20201;-86
2022/08/01 05:40:03;;;;;;;5.50;3.75;;;;;;;22.65;55.28;94461.63;5090265;28;20221;-90
2022/08/01 05:42:31;;;;;;;8.00;3.78;;;;;;;22.69;54.67;94452.38;5091941;28;20189;-82
2022/08/01 05:44:58;;;;;;;3.78;3.05;;;;;;;23.22;53.52;94510.94;5079160;28;20183;-83
2022/08/01 05:47:26;;;;;;;3.35;3.05;;;;;;;23.43;52.06;94513.06;5080958;28;20193;-80
2022/08/01 05:49:53;;;;;;;3.75;2.70;;;;;;;23.59;51.38;94510.88;5088938;28;20190;-87
2022/08/01 05:52:20;;;;;;;3.97;2.42;;;;;;;23.77;50.29;94514.22;5089504;28;20194;-92
2022/08/01 05:54:47;;;;;;;6.35;2.67;;;;;;;23.97;49.59;94507.91;5093678;28;20245;-86
2022/08/01 05:57:14;;;;;;;6.45;2.35;;;;;;;24.21;49.66;94511.34;5094631;28;20256;-91
2022/08/01 05:59:43;;;;;;;2.55;2.20;;;;;;;24.42;48.05;94507.38;5091366;28;20198;-95
2022/08/01 06:02:10;;;;;;;2.75;2.30;;;;;;;24.61;47.49;94511.50;5092930;28;20202;-85
2022/08/01 06:04:38;;;;;;;2.30;2.10;;;;;;;24.83;46.30;94510.84;5087664;28;20700;-88
2022/08/01 06:07:05;;;;;;;3.55;2.35;;;;;;;24.98;46.48;94516.41;5094133;28;20197;-83
2022/08/01 06:09:32;;;;;;;3.70;2.30;;;;;;;25.07;45.55;94517.63;5101028;28;20286;-79
2022/08/01 06:11:59;;;;;;;2.60;2.00;;;;;;;25.17;44.68;94503.97;5094210;28;20198;-90
2022/08/01 06:14:26;;;;;;;2.58;2.25;;;;;;;25.16;44.06;94494.53;5091189;28;20340;-88
2022/08/01 06:16:52;;;;;;;3.42;1.98;;;;;;;25.48;43.27;94515.84;5095647;28;20189;-89
2022/08/01 06:19:19;;;;;;;3.65;2.13;;;;;;;25.16;43.33;94450.06;5093165;28;20206;-89
2022/08/01 06:21:48;;;;;;;3.53;2.10;;;;;;;25.63;42.54;94515.28;5098098;28;20217;-85
2022/08/01 06:24:15;;;;;;;3.15;2.53;;;;;;;25.56;43.08;94497.13;5091400;28;20186;-89
2022/08/01 06:26:42;;;;;;;2.45;2.25;;;;;;;25.56;42.45;94491.06;5083454;28;20191;-88
2022/08/01 06:29:09;;;;;;;5.63;2.10;;;;;;;25.94;42.81;94521.88;5084886;28;20233;-88
2022/08/01 06:31:36;;;;;;;4.57;2.38;;;;;;;26.07;42.47;94526.00;5089098;28;20197;-90
2022/08/01 06:34:03;;;;;;;5.15;2.20;;;;;;;26.16;43.05;94521.97;5085057;28;20226;-83
2022/08/01 06:36:30;;;;;;;3.65;2.08;;;;;;;26.28;42.79;94520.84;5087151;28;20588;-83
2022/08/01 06:38:58;;;;;;;2.13;2.00;;;;;;;26.43;42.71;94515.03;5093587;28;20650;-89
2022/08/01 06:41:25;;;;;;;2.40;2.20;;;;;;;26.55;42.06;94514.16;5091200;28;20197;-89
2022/08/01 06:43:52;;;;;;;2.67;2.05;;;;;;;26.61;42.21;94508.75;5087907;28;20278;-89
2022/08/01 06:46:19;;;;;;;3.70;2.10;;;;;;;26.84;42.00;94504.31;5080640;28;20197;-87
2022/08/01 06:49:26;;;;;;;2.38;2.20;;;;;;;27.01;41.42;94515.56;5094626;28;20202;-81
2022/08/01 06:51:53;;;;;;;2.63;2.33;;;;;;;27.08;40.67;94518.81;5086442;28;20272;-89
2022/08/01 06:54:21;;;;;;;4.35;2.45;;;;;;;26.67;41.14;94442.19;5087294;28;20197;-89
2022/08/01 06:56:48;;;;;;;4.57;1.95;;;;;;;27.09;39.88;94514.34;5089316;28;20193;-85
2022/08/01 06:59:15;;;;;;;4.25;2.33;;;;;;;27.13;40.14;94510.22;5081690;28;20196;-87
2022/08/01 07:01:42;;;;;;;3.35;2.28;;;;;;;27.11;40.79;94499.94;5085558;28;20579;-80
2022/08/01 07:04:09;;;;;;;3.13;2.00;;;;;;;26.73;40.98;94438.63;5101586;28;20257;-82
2022/08/01 07:06:36;;;;;;;2.70;2.33;;;;;;;26.43;41.30;94370.81;5106996;28;20246;-81
2022/08/01 07:09:03;;;;;;;2.85;2.28;;;;;;;27.21;40.79;94501.91;5101315;28;20206;-87
2022/08/01 07:11:31;;;;;;;7.28;2.70;;;;;;;27.23;40.51;94495.34;5096473;28;21102;-80
2022/08/01 07:13:58;;;;;;;3.13;2.47;;;;;;;27.41;41.39;94501.31;5096077;28;20405;-81
2022/08/01 07:16:25;;;;;;;4.50;2.33;;;;;;;27.14;40.98;94454.84;5103926;28;20198;-82
2022/08/01 07:18:55;;;;;;;6.60;2.47;;;;;;;27.13;41.27;94436.72;5096188;28;20204;-83
2022/08/01 07:21:22;;;;;;;2.45;2.25;;;;;;;27.44;41.07;94477.19;5098443;28;20683;-84
2022/08/01 07:23:49;;;;;;;3.80;2.35;;;;;;;27.58;40.60;94485.47;5094917;28;20190;-81
2022/08/01 07:26:18;;;;;;;2.90;2.17;;;;;;;27.77;40.82;94499.88;5092999;28;20587;-88
2022/08/01 07:28:57;;;;;;;2.97;1.95;;;;;;;27.59;40.25;94468.66;5089439;28;20240;-80
2022/08/01 07:31:25;;;;;;;6.78;2.45;;;;;;;27.63;40.09;94448.72;5086888;28;20191;-82
2022/08/01 07:33:52;;;;;;;2.78;2.10;;;;;;;28.02;40.33;94509.78;5083482;28;20198;-88
2022/08/01 07:36:25;;;;;;;8.23;2.45;;;;;;;28.07;39.66;94499.34;5090347;28;20210;-85
2022/08/01 07:38:58;;;;;;;4.40;2.72;;;;;;;28.20;39.17;94500.75;5094257;28;20293;-84
2022/08/01 07:41:28;;;;;;;5.20;2.40;;;;;;;28.13;39.70;94481.75;5084216;28;20198;-87
2022/08/01 07:43:56;;;;;;;3.47;2.63;;;;;;;28.09;40.24;94473.56;5094703;28;20182;-87
2022/08/01 07:46:31;;;;;;;2.55;2.13;;;;;;;27.75;40.11;94413.38;5093337;28;20192;-86
2022/08/01 07:49:07;;;;;;;2.40;2.20;;;;;;;28.26;38.95;94483.94;5083230;28;20579;-83
2022/08/01 07:51:34;;;;;;;3.33;2.22;;;;;;;28.35;38.46;94503.50;5083832;28;20192;-84
2022/08/01 07:56:52;;;;;;;3.13;1.90;;;;;;;28.17;38.60;94498.63;5044209;28;20617;-82
2022/08/01 07:59:35;;;;;;;3.10;2.28;;;;;;;28.20;39.17;94493.66;5036079;28;20191;-82
2022/08/01 08:02:02;;;;;;;2.67;2.10;;;;;;;28.39;38.89;94509.84;5001115;28;20627;-86
2022/08/01 08:04:29;;;;;;;3.42;2.45;;;;;;;28.37;38.37;94511.94;4996993;28;20212;-88
2022/08/01 08:06:56;;;;;;;3.47;2.13;;;;;;;27.82;38.56;94423.69;4998990;28;20680;-86
2022/08/01 08:09:23;;;;;;;3.38;2.30;;;;;;;28.25;39.17;94493.69;4997443;28;20229;-80
2022/08/01 08:11:50;;;;;;;2.47;2.03;;;;;;;28.27;38.50;94477.63;4999618;28;20215;-87
2022/08/01 08:14:18;;;;;;;2.50;2.30;;;;;;;28.53;38.42;94518.06;5002433;28;20208;-84
2022/08/01 08:16:47;;;;;;;2.97;2.22;;;;;;;28.33;39.36;94473.22;4996817;28;20205;-87
2022/08/01 08:19:14;;;;;;;2.60;2.40;;;;;;;28.66;39.60;94514.22;4994770;28;20312;-81
2022/08/01 08:21:42;;;;;;;4.97;2.50;;;;;;;28.70;39.20;94495.03;5001595;28;20220;-87
2022/08/01 08:24:23;;;;;;;8.50;2.55;;;;;;;28.77;38.24;94499.28;5000019;28;20208;-85
2022/08/01 08:26:52;;;;;;;5.40;2.20;;;;;;;28.81;37.61;94506.41;5006308;28;20258;-89
2022/08/01 08:29:20;;;;;;;2.80;2.10;;;;;;;28.88;38.15;94496.41;5022699;28;20223;-88
2022/08/01 08:31:51;;;;;;;2.85;2.38;;;;;;;28.20;38.06;94385.81;5030682;28;20736;-88
2022/08/01 08:34:21;;;;;;;2.60;2.40;;;;;;;28.89;37.92;94499.88;5090111;28;20708;-88
2022/08/01 08:36:49;;;;;;;2.30;2.10;;;;;;;28.92;37.17;94491.44;5083309;28;20182;-82
2022/08/01 08:39:17;;;;;;;2.80;2.40;;;;;;;28.87;38.27;94478.25;5072540;28;20190;-90
2022/08/01 08:41:44;;;;;;;3.10;2.15;;;;;;;29.05;38.07;94513.91;5083886;28;20276;-92
2022/08/01 08:44:11;;;;;;;2.97;2.42;;;;;;;29.06;37.70;94500.50;5086778;28;20197;-88
2022/08/01 08:46:42;;;;;;;3.45;2.28;;;;;;;29.06;37.43;94502.31;5068328;28;20583;-88
2022/08/01 08:49:12;;;;;;;2.15;1.95;;;;;;;29.10;36.98;94496.28;5086805;28;20221;-92
2022/08/01 08:51:40;;;;;;;7.75;2.13;;;;;;;29.11;36.54;94484.72;5089705;28;20185;-90
2022/08/01 08:54:08;;;;;;;3.90;2.10;;;;;;;28.31;36.94;94362.19;5086767;28;20635;-90
2022/08/01 08:57:15;;;;;;;2.20;2.00;;;;;;;27.09;36.82;94176.53;5089255;28;20226;-93
2022/08/01 08:59:43;;;;;;;2.83;1.90;;;;;;;29.11;36.45;94492.59;5073555;28;20620;-92
2022/08/01 09:02:12;;;;;;;4.20;2.40;;;;;;;29.03;35.62;94489.69;5082653;28;20208;-85
2022/08/01 09:04:41;;;;;;;2.17;2.00;;;;;;;29.04;35.28;94483.34;5083427;28;20579;-88
2022/08/01 09:07:10;;;;;;;2.58;2.30;;;;;;;29.04;36.06;94494.69;5085578;28;20224;-90
2022/08/01 09:09:37;;;;;;;2.53;2.08;;;;;;;29.04;35.79;94483.34;5086125;28;20238;-87
2022/08/01 09:12:04;;;;;;;4.57;2.22;;;;;;;29.06;35.54;94487.31;5083946;28;20273;-92
2022/08/01 09:14:32;;;;;;;4.10;2.00;;;;;;;28.93;35.58;94464.88;5086550;28;20221;-92
2022/08/01 09:17:06;;;;;;;2.45;2.20;;;;;;;28.95;35.84;94481.19;5081412;28;20423;-88
2022/08/01 09:19:37;;;;;;;3.05;2.20;;;;;;;28.44;36.62;94407.25;5087787;28;20595;-86
2022/08/01 09:22:07;;;;;;;2.60;2.40;;;;;;;28.91;37.10;94472.22;5076936;28;20309;-91
2022/08/01 09:24:35;;;;;;;2.88;2.08;;;;;;;28.94;37.05;94470.91;5081732;28;20204;-90
2022/08/01 09:27:17;;;;;;;2.28;2.08;;;;;;;28.97;36.11;94468.59;5085154;28;20197;-90
2022/08/01 09:29:45;;;;;;;4.20;2.30;;;;;;;28.98;36.19;94482.56;5083225;28;20696;-83
2022/08/01 09:32:12;;;;;;;2.20;2.03;;;;;;;29.02;36.76;94469.63;5082947;28;20593;-89
2022/08/01 09:34:39;;;;;;;2.50;2.20;;;;;;;28.95;36.54;94483.03;5078847;28;20237;-86
2022/08/01 09:37:07;;;;;;;2.40;2.20;;;;;;;28.84;37.48;94469.00;5086809;28;20194;-85
2022/08/01 09:39:37;;;;;;;4.03;2.33;;;;;;;28.04;36.75;94338.66;5081089;28;20281;-85
2022/08/01 09:42:21;;;;;;;4.03;2.22;;;;;;;28.77;36.63;94472.94;5077188;28;20247;-86
2022/08/01 09:44:48;;;;;;;3.17;2.50;;;;;;;28.72;37.19;94474.50;5079785;28;20190;-88
2022/08/01 09:47:16;;;;;;;3.10;2.22;;;;;;;28.74;37.37;94467.13;5076588;28;20193;-86
2022/08/01 09:49:45;;;;;;;2.30;2.10;;;;;;;27.63;37.57;94302.38;5082555;28;20225;-89
2022/08/01 09:52:15;;;;;;;2.83;2.63;;;;;;;28.80;38.33;94473.25;5085058;28;20247;-88
2022/08/01 09:54:43;;;;;;;2.83;2.30;;;;;;;28.84;38.71;94458.47;5071979;28;20197;-87
2022/08/01 09:57:17;;;;;;;8.25;2.67;;;;;;;28.90;39.03;94470.63;5077351;28;20608;-84
2022/08/01 09:59:45;;;;;;;2.40;2.20;;;;;;;28.86;38.09;94460.88;5082759;28;20197;-87
2022/08/01 10:02:15;;;;;;;2.70;2.50;;;;;;;28.93;38.62;94472.75;5079445;28;20669;-89
2022/08/01 10:04:50;;;;;;;2.40;2.17;;;;;;;28.79;37.62;94452.41;5080389;28;20205;-84
2022/08/01 10:07:19;;;;;;;2.22;2.03;;;;;;;28.91;37.32;94474.84;5081965;28;20192;-87
2022/08/01 10:09:47;;;;;;;4.70;2.08;;;;;;;28.93;37.29;94478.03;5088844;28;20218;-86
2022/08/01 10:12:18;;;;;;;5.15;2.05;;;;;;;28.92;37.88;94465.91;5076550;28;20272;-85
2022/08/01 10:14:47;;;;;;;3.65;2.72;;;;;;;28.99;37.13;94470.97;5081868;28;20178;-82
2022/08/01 10:17:17;;;;;;;3.88;2.72;;;;;;;28.97;37.52;94467.78;5083533;28;20186;-91
2022/08/01 10:19:44;;;;;;;3.53;2.20;;;;;;;28.95;38.03;94459.34;5078097;28;20228;-89
2022/08/01 10:22:16;;;;;;;3.55;2.08;;;;;;;28.97;37.28;94465.16;5087358;28;20280;-84
2022/08/01 10:24:47;;;;;;;2.28;2.08;;;;;;;28.98;37.48;94454.38;5092748;28;20181;-80
2022/08/01 10:27:16;;;;;;;4.45;2.67;;;;;;;29.01;37.43;94460.94;5097296;28;20186;-81
2022/08/01 10:29:50;;;;;;;2.67;2.25;;;;;;;29.00;37.77;94454.91;5095180;28;20244;-82
2022/08/01 10:32:31;;;;;;;4.40;2.30;;;;;;;28.93;37.69;94449.06;5098166;28;20652;-88
2022/08/01 10:34:59;;;;;;;2.47;2.20;;;;;;;28.34;37.00;94366.94;5098804;28;20673;-81
2022/08/01 10:37:26;;;;;;;2.47;2.00;;;;;;;28.90;37.69;94452.22;5094915;28;20198;-92
2022/08/01 10:39:55;;;;;;;2.25;2.10;;;;;;;28.87;37.70;94457.19;5085389;28;20201;-89
2022/08/01 10:42:22;;;;;;;2.40;2.10;;;;;;;28.86;37.63;94445.88;5086294;28;20681;-88
2022/08/01 10:44:50;;;;;;;2.40;2.20;;;;;;;28.86;38.02;94442.44;5080850;28;20559;-87
2022/08/01 10:47:23;;;;;;;6.07;2.20;;;;;;;28.86;37.68;94437.97;5081952;28;20204;-91
2022/08/01 10:50:07;;;;;;;5.57;1.90;;;;;;;28.89;37.92;94437.47;5075496;28;20333;-90
2022/08/01 10:52:34;;;;;;;2.53;2.20;;;;;;;28.57;37.92;94381.53;5082642;28;20200;-82
2022/08/01 10:55:09;;;;;;;3.65;2.17;;;;;;;28.69;37.79;94395.28;5093503;28;20255;-89
2022/08/01 10:57:46;;;;;;;3.50;2.38;;;;;;;28.95;37.56;94436.41;5099674;28;20196;-87
2022/08/01 11:00:18;;;;;;;2.13;2.03;;;;;;;28.57;37.52;94373.63;5089458;28;20190;-86
2022/08/01 11:03:00;;;;;;;1.90;1.80;;;;;;;28.82;36.98;94413.22;5092973;28;20228;-84
2022/08/01 11:05:29;;;;;;;2.17;1.98;;;;;;;28.90;36.76;94431.16;5088067;28;20197;-84
2022/08/01 11:07:56;;;;;;;5.13;2.30;;;;;;;28.90;37.27;94439.03;5098825;28;20212;-89
2022/08/01 11:10:32;;;;;;;3.17;2.38;;;;;;;28.87;37.68;94430.88;5083634;28;20213;-90
2022/08/01 11:13:00;;;;;;;2.00;1.85;;;;;;;28.89;37.48;94429.56;5105427;28;20182;-83
2022/08/01 11:15:30;;;;;;;8.63;2.42;;;;;;;28.84;36.94;94437.44;5100228;28;20294;-91
2022/08/01 11:18:01;;;;;;;3.83;2.10;;;;;;;28.68;37.46;94412.13;5098302;28;20225;-83
2022/08/01 11:20:31;;;;;;;4.57;2.00;;;;;;;28.66;37.12;94390.50;5091894;28;20197;-91
2022/08/01 11:23:21;;;;;;;4.18;2.13;;;;;;;28.81;37.20;94419.53;5084801;28;20186;-86
2022/08/01 11:26:12;;;;;;;3.42;2.35;;;;;;;28.82;37.52;94422.97;5079739;28;20668;-88
2022/08/01 11:28:40;;;;;;;2.95;2.00;;;;;;;28.53;38.12;94369.94;5087622;28;20193;-88
2022/08/01 11:31:30;;;;;;;2.10;2.00;;;;;;;28.70;37.92;94423.94;5089422;28;20271;-93
2022/08/01 11:33:57;;;;;;;3.28;2.40;;;;;;;28.50;37.80;94389.69;5090652;28;20675;-85
2022/08/01 11:36:24;;;;;;;3.70;2.20;;;;;;;28.34;38.08;94359.84;5096024;28;20232;-90
2022/08/01 11:39:12;;;;;;;2.45;2.22;;;;;;;28.70;37.65;94428.44;5092366;28;20173;-87
2022/08/01 11:41:41;;;;;;;2.20;2.00;;;;;;;28.55;37.50;94408.13;5106084;28;20170;-85
2022/08/01 11:44:19;;;;;;;4.30;2.20;;;;;;;27.93;37.82;94312.31;5109983;28;20216;-86
2022/08/01 11:46:55;;;;;;;3.00;2.20;;;;;;;28.66;38.33;94412.34;5109533;28;20208;-85
2022/08/01 11:49:27;;;;;;;4.28;2.17;;;;;;;28.55;37.86;94400.22;5101456;28;20198;-91
2022/08/01 11:52:02;;;;;;;5.20;2.20;;;;;;;28.10;37.73;94322.66;5103133;28;20222;-83
2022/08/01 11:54:30;;;;;;;2.67;2.03;;;;;;;28.67;37.90;94413.97;5114900;28;20259;-83
2022/08/01 11:57:01;;;;;;;3.13;2.30;;;;;;;28.57;37.50;94394.69;5107158;28;20217;-82
2022/08/01 11:59:28;;;;;;;2.30;2.05;;;;;;;28.14;37.86;94333.44;5105548;28;20198;-86